Time;durP1;ratioP1;P1;durP2;ratioP2;P2;SDS_P1;SDS_P2;PMS_P1;PMS_P2;Temp;Humidity;BMP_temperature;BMP_pressure;BME280_temperature;BME280_humidity;BME280_pressure;Samples;Min_cycle;Max_cycle;Signal;HPM_P1;HPM_P2
2023/01/12 01:31:32;;;;;;;;;55.50;39.50;;;;;;;;4330730;32;51092;-53
2023/01/12 01:34:16;;;;;;;;;51.00;39.75;;;;;;;;5103363;27;51060;-52
2023/01/12 01:37:01;;;;;;;;;52.75;39.00;;;;;;;;5092992;27;51533;-56
2023/01/12 01:39:45;;;;;;;;;55.25;40.00;;;;;;;;5079396;27;50977;-52
2023/01/12 01:42:30;;;;;;;;;55.75;42.25;;;;;;;;5079113;27;51101;-53
2023/01/12 01:45:15;;;;;;;;;61.25;44.25;;;;;;;;5081110;27;51097;-48
2023/01/12 01:48:00;;;;;;;;;60.00;45.25;;;;;;;;5077983;27;51083;-52
2023/01/12 01:50:51;;;;;;;;;64.50;46.50;;;;;;;;5077562;27;51102;-50
2023/01/12 01:53:37;;;;;;;;;67.25;49.50;;;;;;;;5082567;27;51172;-51
2023/01/12 01:56:24;;;;;;;;;66.25;50.25;;;;;;;;5081070;27;51033;-50
2023/01/12 01:59:20;;;;;;;;;66.50;50.25;;;;;;;;5076909;27;51192;-50
2023/01/12 02:02:05;;;;;;;;;71.00;51.25;;;;;;;;5076513;27;51388;-48
2023/01/12 02:04:49;;;;;;;;;71.75;52.25;;;;;;;;5076394;27;51971;-49
2023/01/12 02:07:34;;;;;;;;;70.75;53.00;;;;;;;;5076543;27;51174;-49
2023/01/12 02:10:18;;;;;;;;;64.25;51.00;;;;;;;;5076162;27;51134;-50
2023/01/12 02:16:21;;;;;;;;;63.75;48.00;;;;;;;;5076390;27;51078;-53
2023/01/12 02:19:38;;;;;;;;;66.25;51.50;;;;;;;;5070375;27;51687;-52
2023/01/12 02:22:23;;;;;;;;;64.50;49.25;;;;;;;;5066546;27;51629;-52
2023/01/12 02:25:25;;;;;;;;;33.00;22.25;;;;;;;;5070229;27;51110;-51
2023/01/12 02:28:15;;;;;;;;;70.00;52.50;;;;;;;;5070694;27;52098;-53
2023/01/12 02:31:25;;;;;;;;;73.75;54.50;;;;;;;;5071435;27;51209;-52
2023/01/12 02:34:09;;;;;;;;;67.50;51.50;;;;;;;;5073030;28;51577;-52
2023/01/12 02:37:13;;;;;;;;;69.00;52.25;;;;;;;;5069382;28;51157;-52
2023/01/12 02:40:17;;;;;;;;;73.25;58.00;;;;;;;;5074995;28;51161;-51
2023/01/12 02:43:12;;;;;;;;;75.25;58.00;;;;;;;;5049774;28;51914;-56
2023/01/12 02:45:59;;;;;;;;;63.75;51.50;;;;;;;;5061069;28;51213;-51
2023/01/12 02:48:51;;;;;;;;;67.25;52.00;;;;;;;;5057007;28;51331;-50
2023/01/12 02:51:42;;;;;;;;;67.25;51.25;;;;;;;;5059503;28;51068;-52
2023/01/12 02:54:27;;;;;;;;;68.00;48.75;;;;;;;;5047217;28;51452;-51
2023/01/12 02:57:13;;;;;;;;;68.25;49.75;;;;;;;;5052679;28;51055;-51
2023/01/12 02:59:59;;;;;;;;;61.25;50.00;;;;;;;;5057992;28;51184;-52
2023/01/12 03:02:43;;;;;;;;;68.75;50.75;;;;;;;;5052371;28;51296;-54
2023/01/12 03:05:27;;;;;;;;;62.50;48.25;;;;;;;;5049057;28;51456;-53
2023/01/12 03:08:16;;;;;;;;;71.00;51.50;;;;;;;;5057290;28;51490;-54
2023/01/12 03:11:11;;;;;;;;;63.00;47.50;;;;;;;;5057038;28;51103;-53
2023/01/12 03:13:58;;;;;;;;;67.25;49.25;;;;;;;;5056443;28;51604;-52
2023/01/12 03:16:42;;;;;;;;;71.25;51.75;;;;;;;;5056583;28;51125;-52
2023/01/12 03:19:30;;;;;;;;;66.25;51.00;;;;;;;;5054619;28;51105;-53
2023/01/12 03:22:15;;;;;;;;;68.25;51.50;;;;;;;;5058717;28;51013;-55
2023/01/12 03:25:01;;;;;;;;;68.25;50.25;;;;;;;;5054620;28;51156;-51
2023/01/12 03:27:49;;;;;;;;;64.50;49.75;;;;;;;;5050751;28;51145;-50
2023/01/12 03:30:39;;;;;;;;;67.25;49.25;;;;;;;;5058225;28;51091;-54
2023/01/12 03:33:24;;;;;;;;;67.00;50.75;;;;;;;;5060975;28;51339;-51
2023/01/12 03:36:35;;;;;;;;;65.75;49.75;;;;;;;;5059047;28;51187;-54
2023/01/12 03:39:39;;;;;;;;;65.75;48.75;;;;;;;;5045045;28;51234;-52
2023/01/12 03:42:30;;;;;;;;;63.00;50.00;;;;;;;;5058334;28;51197;-51
2023/01/12 03:45:38;;;;;;;;;61.25;46.75;;;;;;;;5060880;28;51063;-54
2023/01/12 03:48:48;;;;;;;;;65.50;48.50;;;;;;;;5059548;28;51158;-52
2023/01/12 03:51:35;;;;;;;;;61.00;48.75;;;;;;;;5060272;28;51133;-53
2023/01/12 03:54:21;;;;;;;;;69.25;49.75;;;;;;;;5048998;28;51147;-52
2023/01/12 03:57:07;;;;;;;;;64.00;46.75;;;;;;;;5055777;28;50972;-51
2023/01/12 03:59:52;;;;;;;;;64.75;48.00;;;;;;;;5048091;28;51357;-53
2023/01/12 04:02:36;;;;;;;;;65.00;49.00;;;;;;;;5056221;28;51786;-54
2023/01/12 04:05:21;;;;;;;;;62.00;46.50;;;;;;;;5060608;28;51187;-53
2023/01/12 04:08:05;;;;;;;;;60.75;46.75;;;;;;;;5048835;28;51139;-53
2023/01/12 04:10:50;;;;;;;;;60.25;45.75;;;;;;;;5058648;28;51476;-52
2023/01/12 04:13:34;;;;;;;;;66.00;48.75;;;;;;;;5058305;28;51257;-52
2023/01/12 04:16:18;;;;;;;;;66.50;51.00;;;;;;;;5058856;28;50968;-53
2023/01/12 04:19:03;;;;;;;;;67.25;48.75;;;;;;;;5052467;28;51161;-52
2023/01/12 04:24:50;;;;;;;;;71.00;51.75;;;;;;;;5054159;28;51386;-51
2023/01/12 04:27:35;;;;;;;;;65.75;48.50;;;;;;;;5057870;28;51156;-50
2023/01/12 04:30:22;;;;;;;;;67.25;50.00;;;;;;;;5052386;28;51130;-56
2023/01/12 04:33:08;;;;;;;;;64.25;48.75;;;;;;;;5053750;28;51207;-54
2023/01/12 04:35:52;;;;;;;;;64.50;49.25;;;;;;;;5056078;28;51543;-51
2023/01/12 04:38:38;;;;;;;;;71.00;50.25;;;;;;;;5056873;28;51089;-51
2023/01/12 04:41:22;;;;;;;;;64.50;48.25;;;;;;;;5046857;28;51627;-53
2023/01/12 04:44:07;;;;;;;;;65.75;51.25;;;;;;;;5048519;28;51102;-53
2023/01/12 04:46:51;;;;;;;;;70.00;51.00;;;;;;;;5054596;28;51047;-52
2023/01/12 04:49:35;;;;;;;;;63.75;50.00;;;;;;;;5057473;28;51557;-53
2023/01/12 04:52:20;;;;;;;;;68.25;50.50;;;;;;;;5056470;28;51106;-55
2023/01/12 04:55:05;;;;;;;;;70.75;53.00;;;;;;;;5056717;28;51090;-57
2023/01/12 04:57:49;;;;;;;;;72.75;54.50;;;;;;;;5054259;28;51147;-53
2023/01/12 05:00:34;;;;;;;;;70.00;52.50;;;;;;;;5053049;28;51027;-54
2023/01/12 05:03:18;;;;;;;;;72.00;53.50;;;;;;;;5053138;28;51123;-53
2023/01/12 05:06:03;;;;;;;;;73.75;56.50;;;;;;;;5054253;28;51296;-53
2023/01/12 05:11:51;;;;;;;;;73.25;57.25;;;;;;;;5051859;28;51148;-51
2023/01/12 05:14:35;;;;;;;;;73.50;58.75;;;;;;;;5055013;28;51169;-53
2023/01/12 05:17:20;;;;;;;;;73.75;56.75;;;;;;;;5051497;28;51111;-52
2023/01/12 05:20:05;;;;;;;;;74.75;59.50;;;;;;;;5057617;28;51186;-54
2023/01/12 05:22:51;;;;;;;;;72.00;54.25;;;;;;;;5057037;28;51005;-54
2023/01/12 05:25:35;;;;;;;;;67.25;53.00;;;;;;;;5051968;28;51356;-53
2023/01/12 05:28:20;;;;;;;;;66.75;50.00;;;;;;;;5057015;28;51190;-50
2023/01/12 05:31:08;;;;;;;;;70.50;52.00;;;;;;;;5068415;28;51942;-53
2023/01/12 05:33:52;;;;;;;;;63.50;50.25;;;;;;;;5041347;28;51247;-53
2023/01/12 05:36:37;;;;;;;;;68.75;50.75;;;;;;;;5059646;28;51030;-50
2023/01/12 05:39:21;;;;;;;;;66.50;50.75;;;;;;;;5059031;28;51510;-53
2023/01/12 05:45:09;;;;;;;;;68.00;50.50;;;;;;;;5058943;28;51170;-50
2023/01/12 05:47:58;;;;;;;;;74.75;54.50;;;;;;;;5059498;28;51116;-50
2023/01/12 05:50:42;;;;;;;;;70.25;51.75;;;;;;;;5058987;28;50964;-53
2023/01/12 05:53:27;;;;;;;;;70.75;53.50;;;;;;;;5062577;28;51952;-54
2023/01/12 05:56:18;;;;;;;;;73.50;54.50;;;;;;;;5060202;28;51504;-54
2023/01/12 05:59:03;;;;;;;;;75.50;55.00;;;;;;;;5060228;28;51086;-53
2023/01/12 06:01:47;;;;;;;;;71.00;55.50;;;;;;;;5060704;28;51161;-52
2023/01/12 06:04:31;;;;;;;;;72.75;54.75;;;;;;;;5061943;28;51090;-53
2023/01/12 06:07:16;;;;;;;;;76.00;60.50;;;;;;;;5062254;28;51341;-51
2023/01/12 06:10:00;;;;;;;;;70.25;51.25;;;;;;;;5063548;28;51184;-51
2023/01/12 06:15:47;;;;;;;;;73.75;62.25;;;;;;;;5060590;28;51307;-51
2023/01/12 06:18:35;;;;;;;;;74.75;63.75;;;;;;;;5066478;27;52656;-55
2023/01/12 06:21:20;;;;;;;;;73.50;57.75;;;;;;;;5062720;28;51595;-53
2023/01/12 06:24:04;;;;;;;;;74.50;61.00;;;;;;;;5062398;28;51137;-51
2023/01/12 06:26:48;;;;;;;;;73.75;61.00;;;;;;;;5062646;28;51049;-53
2023/01/12 06:29:32;;;;;;;;;77.75;62.00;;;;;;;;5062103;28;51125;-51
2023/01/12 06:32:17;;;;;;;;;74.00;63.75;;;;;;;;5058812;28;51092;-51
2023/01/12 06:35:02;;;;;;;;;74.75;57.50;;;;;;;;5058063;28;51165;-53
2023/01/12 06:37:46;;;;;;;;;75.50;59.75;;;;;;;;5054636;28;51075;-55
2023/01/12 06:40:31;;;;;;;;;76.25;56.00;;;;;;;;5062091;28;51067;-49
2023/01/12 06:43:16;;;;;;;;;71.25;54.50;;;;;;;;5062348;28;51107;-53
2023/01/12 06:46:00;;;;;;;;;73.25;56.25;;;;;;;;5060750;28;51696;-53
2023/01/12 06:48:44;;;;;;;;;74.00;59.00;;;;;;;;5061835;28;51157;-55
2023/01/12 06:51:28;;;;;;;;;84.00;70.25;;;;;;;;5060115;28;51325;-51
2023/01/12 06:54:13;;;;;;;;;74.00;55.50;;;;;;;;5062224;28;51282;-49
2023/01/12 06:56:57;;;;;;;;;77.25;56.75;;;;;;;;5059186;28;51692;-56
2023/01/12 06:59:42;;;;;;;;;76.25;59.25;;;;;;;;5061794;28;51129;-52
2023/01/12 07:02:27;;;;;;;;;71.25;54.75;;;;;;;;5056235;28;51070;-52
2023/01/12 07:05:11;;;;;;;;;76.50;58.00;;;;;;;;5051343;28;51149;-54
2023/01/12 07:07:58;;;;;;;;;72.50;53.75;;;;;;;;5061839;28;51208;-51
2023/01/12 07:10:42;;;;;;;;;76.00;58.50;;;;;;;;5061709;28;51562;-55
2023/01/12 07:13:27;;;;;;;;;72.50;56.25;;;;;;;;5054714;28;51023;-55
2023/01/12 07:16:12;;;;;;;;;77.50;56.25;;;;;;;;5061937;28;51651;-52
2023/01/12 07:18:57;;;;;;;;;78.75;64.25;;;;;;;;5046005;28;51063;-52
2023/01/12 07:21:43;;;;;;;;;77.00;62.25;;;;;;;;5061469;28;51220;-54
2023/01/12 07:24:27;;;;;;;;;75.00;62.75;;;;;;;;5061302;28;51230;-51
2023/01/12 07:27:11;;;;;;;;;77.00;62.25;;;;;;;;5057896;28;51250;-54
2023/01/12 07:29:56;;;;;;;;;78.25;64.50;;;;;;;;5061001;28;51063;-52
2023/01/12 07:32:40;;;;;;;;;76.50;63.75;;;;;;;;5061728;28;51111;-53
2023/01/12 07:35:25;;;;;;;;;75.00;63.00;;;;;;;;5061466;28;51647;-51
2023/01/12 07:38:09;;;;;;;;;68.75;53.00;;;;;;;;5059077;28;51062;-51
2023/01/12 07:40:57;;;;;;;;;72.50;57.25;;;;;;;;5058298;28;51233;-49
2023/01/12 07:43:42;;;;;;;;;72.25;56.25;;;;;;;;5061113;28;51091;-52
2023/01/12 07:46:26;;;;;;;;;72.00;53.00;;;;;;;;5058598;28;51760;-53
2023/01/12 07:49:11;;;;;;;;;77.25;59.75;;;;;;;;5060817;28;51039;-52
2023/01/12 07:51:55;;;;;;;;;74.75;55.50;;;;;;;;5061288;28;50976;-53
2023/01/12 07:54:39;;;;;;;;;75.00;62.50;;;;;;;;5058641;28;51138;-49
2023/01/12 07:57:24;;;;;;;;;75.00;61.75;;;;;;;;5057907;28;51233;-51
2023/01/12 08:00:08;;;;;;;;;70.75;53.50;;;;;;;;5056081;28;51610;-52
2023/01/12 08:02:54;;;;;;;;;71.25;54.75;;;;;;;;5060426;28;51159;-54
2023/01/12 08:05:38;;;;;;;;;70.50;54.75;;;;;;;;5060602;28;51047;-50
2023/01/12 08:08:23;;;;;;;;;71.25;52.00;;;;;;;;5060837;28;51138;-54
2023/01/12 08:11:08;;;;;;;;;68.00;51.00;;;;;;;;5060455;28;51249;-54
2023/01/12 08:13:54;;;;;;;;;67.50;50.25;;;;;;;;5060316;28;51071;-53
2023/01/12 08:16:40;;;;;;;;;68.50;52.25;;;;;;;;5060917;28;51000;-53
2023/01/12 08:19:29;;;;;;;;;64.25;50.00;;;;;;;;5060064;28;51097;-52
2023/01/12 08:22:17;;;;;;;;;68.50;52.75;;;;;;;;5060139;28;51180;-52
2023/01/12 08:25:08;;;;;;;;;66.25;51.50;;;;;;;;5060338;28;51145;-55
2023/01/12 08:27:54;;;;;;;;;66.50;48.50;;;;;;;;5052652;28;51111;-53
2023/01/12 08:30:39;;;;;;;;;71.00;54.25;;;;;;;;5058492;28;51199;-54
2023/01/12 08:33:23;;;;;;;;;63.50;50.00;;;;;;;;5059490;28;51111;-54
2023/01/12 08:36:12;;;;;;;;;71.50;53.50;;;;;;;;5053535;28;51133;-52
2023/01/12 08:38:56;;;;;;;;;70.50;53.00;;;;;;;;5059509;28;51050;-51
2023/01/12 08:41:41;;;;;;;;;70.50;52.50;;;;;;;;5060141;28;51071;-52
2023/01/12 08:44:30;;;;;;;;;70.00;52.75;;;;;;;;5059796;28;51518;-49
2023/01/12 08:47:16;;;;;;;;;71.25;52.75;;;;;;;;5060014;28;51110;-50
2023/01/12 08:50:01;;;;;;;;;77.75;63.25;;;;;;;;5059560;28;51235;-53
2023/01/12 08:52:46;;;;;;;;;76.00;60.50;;;;;;;;5060027;28;51151;-51
2023/01/12 08:55:30;;;;;;;;;79.00;66.50;;;;;;;;5051145;28;51376;-56
2023/01/12 08:58:15;;;;;;;;;75.75;61.25;;;;;;;;5056723;28;51144;-54
2023/01/12 09:01:07;;;;;;;;;74.75;58.25;;;;;;;;5059835;28;51142;-53
2023/01/12 09:03:51;;;;;;;;;73.00;56.50;;;;;;;;5053251;28;50964;-56
2023/01/12 09:06:40;;;;;;;;;76.25;61.25;;;;;;;;5059930;28;51149;-54
2023/01/12 09:09:24;;;;;;;;;75.75;59.25;;;;;;;;5054594;28;51108;-51
2023/01/12 09:12:08;;;;;;;;;70.25;52.25;;;;;;;;5059590;28;51151;-55
2023/01/12 09:14:53;;;;;;;;;71.50;59.50;;;;;;;;5058095;28;51016;-53
2023/01/12 09:17:37;;;;;;;;;77.00;66.75;;;;;;;;5059472;28;51103;-52
2023/01/12 09:20:22;;;;;;;;;75.75;61.75;;;;;;;;5054915;28;51349;-51
2023/01/12 09:23:06;;;;;;;;;71.75;54.00;;;;;;;;5049470;28;51082;-55
2023/01/12 09:25:50;;;;;;;;;74.00;57.50;;;;;;;;5058031;28;51033;-52
2023/01/12 09:28:35;;;;;;;;;75.75;61.00;;;;;;;;5059097;28;51079;-53
2023/01/12 09:31:21;;;;;;;;;70.75;55.50;;;;;;;;5075753;27;51069;-51
2023/01/12 09:34:05;;;;;;;;;70.25;55.25;;;;;;;;5062986;28;51083;-58
2023/01/12 09:38:16;;;;;;;;;67.25;51.25;;;;;;;;4325852;32;51184;-43
2023/01/12 09:41:07;;;;;;;;;72.25;52.25;;;;;;;;5095029;27;51066;-48
2023/01/12 09:46:59;;;;;;;;;71.75;56.00;;;;;;;;5077380;27;51204;-43
2023/01/12 09:49:47;;;;;;;;;71.00;54.75;;;;;;;;5074585;27;51575;-45
2023/01/12 09:52:37;;;;;;;;;72.00;54.00;;;;;;;;5076186;27;51480;-43
2023/01/12 09:55:23;;;;;;;;;63.00;49.75;;;;;;;;5070262;27;51194;-46
2023/01/12 09:58:10;;;;;;;;;64.00;49.50;;;;;;;;5076749;27;51776;-46
2023/01/12 10:00:56;;;;;;;;;68.25;50.50;;;;;;;;5078382;27;51655;-45
2023/01/12 10:03:41;;;;;;;;;65.50;49.25;;;;;;;;5079785;27;51251;-44
2023/01/12 10:06:25;;;;;;;;;67.50;47.25;;;;;;;;5075583;27;51166;-47
2023/01/12 10:09:20;;;;;;;;;63.50;48.50;;;;;;;;5074604;27;51576;-46
2023/01/12 10:12:23;;;;;;;;;71.50;54.25;;;;;;;;5076581;27;51144;-47
2023/01/12 10:15:25;;;;;;;;;68.00;51.25;;;;;;;;5075868;27;51585;-45
2023/01/12 10:18:20;;;;;;;;;56.00;43.50;;;;;;;;5075822;27;50994;-48
2023/01/12 10:21:08;;;;;;;;;63.50;49.00;;;;;;;;5076179;27;51147;-42
2023/01/12 10:23:53;;;;;;;;;67.50;51.75;;;;;;;;5077532;27;51418;-44
2023/01/12 10:26:41;;;;;;;;;70.75;54.75;;;;;;;;5076960;27;51181;-44
2023/01/12 10:29:26;;;;;;;;;69.50;54.00;;;;;;;;5075391;27;51018;-46
2023/01/12 10:32:11;;;;;;;;;66.00;49.75;;;;;;;;5080994;27;51144;-46
2023/01/12 10:34:56;;;;;;;;;58.75;47.25;;;;;;;;5085459;27;51244;-45
2023/01/12 10:38:06;;;;;;;;;65.75;51.00;;;;;;;;5063070;27;52203;-43
2023/01/12 10:41:02;;;;;;;;;66.00;51.50;;;;;;;;5080790;27;51573;-46
2023/01/12 10:43:59;;;;;;;;;69.50;53.00;;;;;;;;5075209;27;51192;-44
2023/01/12 10:47:03;;;;;;;;;66.50;50.75;;;;;;;;5074660;27;51197;-46
2023/01/12 10:50:09;;;;;;;;;70.50;56.00;;;;;;;;5066469;27;51413;-47
2023/01/12 10:52:56;;;;;;;;;64.75;49.50;;;;;;;;5061393;28;51717;-46
2023/01/12 10:55:41;;;;;;;;;61.75;48.25;;;;;;;;5061770;28;51050;-46
2023/01/12 10:58:28;;;;;;;;;62.75;48.00;;;;;;;;5062146;28;51193;-44
2023/01/12 11:01:13;;;;;;;;;64.25;50.00;;;;;;;;5061732;28;51071;-45
2023/01/12 11:04:04;;;;;;;;;68.00;50.00;;;;;;;;5059462;28;51136;-45
2023/01/12 11:07:07;;;;;;;;;66.75;51.75;;;;;;;;5061560;28;51102;-44
2023/01/12 11:09:58;;;;;;;;;62.75;47.75;;;;;;;;5065146;27;51417;-45
2023/01/12 11:12:52;;;;;;;;;61.75;49.25;;;;;;;;5060858;28;51050;-47
2023/01/12 11:15:39;;;;;;;;;63.25;47.00;;;;;;;;5061057;28;51553;-44
2023/01/12 11:18:29;;;;;;;;;63.25;48.50;;;;;;;;5061315;27;51129;-46
2023/01/12 11:21:17;;;;;;;;;63.00;47.00;;;;;;;;5061005;28;51200;-46
2023/01/12 11:24:22;;;;;;;;;62.25;45.25;;;;;;;;5066826;27;51108;-45
2023/01/12 11:27:12;;;;;;;;;63.00;48.00;;;;;;;;5065468;27;51140;-43
2023/01/12 11:30:14;;;;;;;;;62.50;46.25;;;;;;;;5075984;27;51041;-47
2023/01/12 11:33:07;;;;;;;;;60.00;45.00;;;;;;;;5061662;27;51096;-45
2023/01/12 11:36:10;;;;;;;;;65.75;52.00;;;;;;;;5080131;27;51175;-46
2023/01/12 11:39:04;;;;;;;;;64.25;47.50;;;;;;;;5081323;27;51049;-44
2023/01/12 11:45:18;;;;;;;;;54.00;44.00;;;;;;;;5057620;28;51068;-43
2023/01/12 11:48:12;;;;;;;;;64.00;48.25;;;;;;;;5060516;28;51037;-46
2023/01/12 11:50:57;;;;;;;;;63.50;47.00;;;;;;;;5058249;27;51204;-46
2023/01/12 11:53:42;;;;;;;;;64.00;45.00;;;;;;;;5059820;28;51517;-44
2023/01/12 11:56:45;;;;;;;;;63.25;46.50;;;;;;;;5060647;28;51046;-47
2023/01/12 11:59:49;;;;;;;;;63.25;47.00;;;;;;;;5059969;28;51754;-45
2023/01/12 12:03:08;;;;;;;;;63.75;45.75;;;;;;;;5035842;28;51229;-44
2023/01/12 12:05:55;;;;;;;;;62.00;44.75;;;;;;;;5037943;28;51273;-47
2023/01/12 12:09:03;;;;;;;;;61.00;44.75;;;;;;;;5037516;28;51466;-45
2023/01/12 12:11:52;;;;;;;;;60.50;46.25;;;;;;;;5037564;28;51259;-44
2023/01/12 12:14:42;;;;;;;;;62.25;46.75;;;;;;;;5033072;28;51208;-47
2023/01/12 12:17:44;;;;;;;;;63.75;46.25;;;;;;;;5037519;28;51164;-45
2023/01/12 12:20:31;;;;;;;;;60.50;45.00;;;;;;;;5037294;28;51672;-46
2023/01/12 12:23:22;;;;;;;;;62.25;45.50;;;;;;;;5035452;28;51137;-43
2023/01/12 12:26:23;;;;;;;;;63.00;46.00;;;;;;;;5040978;28;51594;-45
2023/01/12 12:29:25;;;;;;;;;65.25;44.75;;;;;;;;5036895;28;51177;-44
2023/01/12 12:32:33;;;;;;;;;63.00;43.75;;;;;;;;5038120;28;51264;-45
2023/01/12 12:35:17;;;;;;;;;60.00;44.00;;;;;;;;5046627;28;51357;-48
2023/01/12 12:38:08;;;;;;;;;70.00;47.50;;;;;;;;5058881;28;51555;-43
2023/01/12 12:47:40;;;;;;;;;66.75;48.00;;;;;;;;5059919;28;51184;-46
2023/01/12 12:50:27;;;;;;;;;68.00;52.50;;;;;;;;5059474;28;51126;-47
2023/01/12 12:53:11;;;;;;;;;66.00;48.50;;;;;;;;5059796;28;51224;-44
2023/01/12 12:56:02;;;;;;;;;65.25;47.00;;;;;;;;5059930;28;51007;-45
2023/01/12 12:58:56;;;;;;;;;65.00;51.00;;;;;;;;5069419;27;51205;-45
2023/01/12 13:01:53;;;;;;;;;66.25;49.50;;;;;;;;5069224;27;51526;-45
2023/01/12 13:04:45;;;;;;;;;62.75;43.75;;;;;;;;5080345;27;51082;-45
2023/01/12 13:07:51;;;;;;;;;65.75;48.25;;;;;;;;5037036;28;51211;-43
2023/01/12 13:10:36;;;;;;;;;66.50;52.25;;;;;;;;5014253;28;51233;-46
2023/01/12 13:13:30;;;;;;;;;66.25;51.00;;;;;;;;5013596;28;51079;-45
2023/01/12 13:16:14;;;;;;;;;68.25;54.75;;;;;;;;5015450;28;51261;-50
2023/01/12 13:18:58;;;;;;;;;69.25;52.25;;;;;;;;5017244;28;51188;-47
2023/01/12 13:21:56;;;;;;;;;61.75;47.00;;;;;;;;5016719;28;51207;-46
2023/01/12 13:24:41;;;;;;;;;70.00;50.25;;;;;;;;5002947;28;51176;-45
2023/01/12 13:27:43;;;;;;;;;63.00;49.50;;;;;;;;5016470;28;51221;-48
2023/01/12 13:30:28;;;;;;;;;62.75;47.75;;;;;;;;5036077;28;51208;-48
2023/01/12 13:33:21;;;;;;;;;65.50;47.50;;;;;;;;5036286;28;51106;-51
2023/01/12 13:36:07;;;;;;;;;64.25;51.50;;;;;;;;5016770;28;51189;-46
2023/01/12 13:38:58;;;;;;;;;66.50;49.50;;;;;;;;5062062;28;51191;-45
2023/01/12 13:44:45;;;;;;;;;60.00;45.25;;;;;;;;5079675;28;51581;-47
2023/01/12 13:47:31;;;;;;;;;64.75;50.50;;;;;;;;5079335;28;51042;-49
2023/01/12 13:50:18;;;;;;;;;63.50;48.00;;;;;;;;5079889;28;51124;-48
2023/01/12 13:53:03;;;;;;;;;63.25;48.00;;;;;;;;5079490;28;51489;-46
2023/01/12 13:55:55;;;;;;;;;62.50;47.00;;;;;;;;5079500;28;51666;-46
2023/01/12 13:58:40;;;;;;;;;66.00;47.00;;;;;;;;5058906;28;51965;-48
2023/01/12 14:01:24;;;;;;;;;60.75;46.00;;;;;;;;5059579;28;51154;-46
2023/01/12 14:04:09;;;;;;;;;59.75;47.50;;;;;;;;5059031;28;51076;-48
2023/01/12 14:07:12;;;;;;;;;61.75;44.25;;;;;;;;5063180;28;51087;-45
2023/01/12 14:09:59;;;;;;;;;59.00;46.25;;;;;;;;5079815;28;52019;-48
2023/01/12 14:13:07;;;;;;;;;59.50;47.00;;;;;;;;5079151;28;51066;-47
2023/01/12 14:19:00;;;;;;;;;64.00;46.75;;;;;;;;5052840;28;51448;-48
2023/01/12 14:21:53;;;;;;;;;61.75;45.50;;;;;;;;5059224;28;51087;-49
2023/01/12 14:24:37;;;;;;;;;74.25;60.00;;;;;;;;5043928;28;51115;-56
2023/01/12 14:27:22;;;;;;;;;64.50;50.50;;;;;;;;5063080;28;51170;-55
2023/01/12 14:30:10;;;;;;;;;73.50;62.25;;;;;;;;5062763;28;51527;-58
2023/01/12 14:32:54;;;;;;;;;55.00;45.75;;;;;;;;5062158;28;51160;-57
2023/01/12 14:35:42;;;;;;;;;63.25;48.75;;;;;;;;5062467;28;51125;-54
2023/01/12 14:38:27;;;;;;;;;63.25;48.25;;;;;;;;5062292;28;51131;-57
2023/01/12 14:47:30;;;;;;;;;83.25;67.25;;;;;;;;5062746;28;51130;-56
2023/01/12 14:50:18;;;;;;;;;72.75;51.25;;;;;;;;5062486;28;51091;-56
2023/01/12 14:53:22;;;;;;;;;70.50;52.25;;;;;;;;5055907;28;51023;-53
2023/01/12 14:56:07;;;;;;;;;66.75;50.25;;;;;;;;5062251;28;51040;-56
2023/01/12 14:58:52;;;;;;;;;59.25;48.00;;;;;;;;5065691;27;51106;-55
2023/01/12 15:01:37;;;;;;;;;68.75;52.50;;;;;;;;5082664;27;51596;-57
2023/01/12 15:04:23;;;;;;;;;63.75;49.50;;;;;;;;5082816;27;51130;-58
2023/01/12 15:07:14;;;;;;;;;64.50;44.25;;;;;;;;5082516;27;51024;-57
2023/01/12 15:10:02;;;;;;;;;55.25;45.00;;;;;;;;5082411;27;51208;-57
2023/01/12 15:12:48;;;;;;;;;61.00;48.00;;;;;;;;5082271;27;51520;-57
2023/01/12 15:27:48;;;;;;;;;59.50;46.50;;;;;;;;5075304;27;51626;-57
2023/01/12 15:30:35;;;;;;;;;62.00;49.25;;;;;;;;5076382;27;51175;-58
2023/01/12 15:33:20;;;;;;;;;50.25;41.25;;;;;;;;5081608;27;51490;-57
2023/01/12 15:36:04;;;;;;;;;60.50;45.25;;;;;;;;5080338;27;51276;-58
2023/01/12 15:38:49;;;;;;;;;60.00;45.25;;;;;;;;5080410;27;51338;-58
2023/01/12 15:44:37;;;;;;;;;63.25;46.50;;;;;;;;5061191;28;51214;-57
2023/01/12 15:47:22;;;;;;;;;55.50;43.00;;;;;;;;5060791;28;51059;-54
2023/01/12 15:50:07;;;;;;;;;55.75;44.50;;;;;;;;5061524;28;51113;-56
2023/01/12 15:52:51;;;;;;;;;54.75;41.00;;;;;;;;5049050;28;51570;-54
2023/01/12 15:55:36;;;;;;;;;59.00;45.75;;;;;;;;5060816;28;51177;-52
2023/01/12 15:58:20;;;;;;;;;57.75;42.00;;;;;;;;5061077;28;51183;-55
2023/01/12 16:01:09;;;;;;;;;59.00;44.00;;;;;;;;5060850;28;51181;-52
2023/01/12 16:03:53;;;;;;;;;56.75;43.75;;;;;;;;5061205;28;51641;-54
2023/01/12 16:06:37;;;;;;;;;56.75;42.25;;;;;;;;5060674;28;51465;-56
2023/01/12 16:09:21;;;;;;;;;56.75;41.50;;;;;;;;5061083;28;51130;-50
2023/01/12 16:12:06;;;;;;;;;44.75;37.00;;;;;;;;5060689;28;51147;-52
2023/01/12 16:14:51;;;;;;;;;37.75;33.00;;;;;;;;5075774;27;51177;-52
2023/01/12 16:17:35;;;;;;;;;55.75;42.75;;;;;;;;5079693;27;51583;-56
2023/01/12 16:20:20;;;;;;;;;51.75;39.25;;;;;;;;5069543;27;51129;-52
2023/01/12 16:23:04;;;;;;;;;56.50;42.75;;;;;;;;5048071;28;51072;-49
2023/01/12 16:25:58;;;;;;;;;57.25;40.50;;;;;;;;5060304;28;51094;-54
2023/01/12 16:28:50;;;;;;;;;49.75;39.25;;;;;;;;5037776;28;51129;-55
2023/01/12 16:31:34;;;;;;;;;54.50;43.00;;;;;;;;5037673;28;51137;-51
2023/01/12 16:34:22;;;;;;;;;61.75;44.50;;;;;;;;5037963;28;51028;-51
2023/01/12 16:37:11;;;;;;;;;55.00;42.25;;;;;;;;5037052;28;51122;-52
2023/01/12 16:39:55;;;;;;;;;60.75;44.00;;;;;;;;5037691;28;51191;-49
2023/01/12 16:42:39;;;;;;;;;55.75;42.00;;;;;;;;5055455;28;51143;-53
2023/01/12 16:45:23;;;;;;;;;58.75;46.25;;;;;;;;5057617;28;51053;-46
2023/01/12 16:48:08;;;;;;;;;57.50;42.25;;;;;;;;5058009;28;51128;-50
2023/01/12 16:50:52;;;;;;;;;58.00;44.75;;;;;;;;5057836;28;51083;-47
2023/01/12 16:53:53;;;;;;;;;58.25;44.00;;;;;;;;4997666;28;51452;-48
2023/01/12 16:56:38;;;;;;;;;52.75;41.50;;;;;;;;4996164;28;51138;-50
2023/01/12 16:59:22;;;;;;;;;52.25;39.25;;;;;;;;4997448;28;51195;-52
2023/01/12 17:02:09;;;;;;;;;56.00;43.25;;;;;;;;4996916;28;51472;-49
2023/01/12 17:04:53;;;;;;;;;39.00;33.00;;;;;;;;4996546;28;51173;-49
2023/01/12 17:07:37;;;;;;;;;54.00;40.50;;;;;;;;5010266;28;51284;-49
2023/01/12 17:10:21;;;;;;;;;54.75;42.00;;;;;;;;5016385;28;51227;-50
2023/01/12 17:13:05;;;;;;;;;56.75;42.50;;;;;;;;5016347;28;51549;-51
2023/01/12 17:15:51;;;;;;;;;52.00;40.25;;;;;;;;5016313;28;51231;-50
2023/01/12 17:18:35;;;;;;;;;56.75;43.75;;;;;;;;5002888;28;51141;-47
2023/01/12 17:21:20;;;;;;;;;53.75;41.50;;;;;;;;5017269;28;51227;-47
2023/01/12 17:24:04;;;;;;;;;55.00;42.50;;;;;;;;5017229;28;50987;-48
2023/01/12 17:26:50;;;;;;;;;55.50;38.75;;;;;;;;5016633;28;51222;-50
2023/01/12 17:29:51;;;;;;;;;57.50;44.00;;;;;;;;5009691;28;51826;-51
2023/01/12 17:32:35;;;;;;;;;54.50;39.25;;;;;;;;5017108;28;51559;-51
2023/01/12 17:35:19;;;;;;;;;52.25;38.75;;;;;;;;5017020;28;50962;-50
2023/01/12 17:38:04;;;;;;;;;51.75;39.75;;;;;;;;5016014;28;51256;-46
2023/01/12 17:40:48;;;;;;;;;53.75;41.50;;;;;;;;5016583;28;51129;-47
2023/01/12 17:43:33;;;;;;;;;55.75;42.00;;;;;;;;5016747;28;51104;-55
2023/01/12 17:46:17;;;;;;;;;48.00;39.50;;;;;;;;5016589;28;51219;-53
2023/01/12 17:49:03;;;;;;;;;54.75;40.50;;;;;;;;5016612;28;51164;-53
2023/01/12 17:51:47;;;;;;;;;53.25;41.75;;;;;;;;5016228;28;51415;-52
2023/01/12 17:54:32;;;;;;;;;54.25;40.75;;;;;;;;5016804;28;51214;-51
2023/01/12 17:57:16;;;;;;;;;55.75;41.50;;;;;;;;5016552;28;51103;-47
2023/01/12 18:00:01;;;;;;;;;53.50;40.75;;;;;;;;5020668;28;51037;-49
2023/01/12 18:02:45;;;;;;;;;56.00;43.75;;;;;;;;5021697;28;51176;-52
2023/01/12 18:05:30;;;;;;;;;55.00;42.25;;;;;;;;5077323;27;51177;-51
2023/01/12 18:08:14;;;;;;;;;55.00;43.75;;;;;;;;5076378;27;51569;-47
2023/01/12 18:11:02;;;;;;;;;58.75;43.75;;;;;;;;5063124;28;51041;-50
2023/01/12 18:13:46;;;;;;;;;56.25;43.25;;;;;;;;5066471;27;51157;-54
2023/01/12 18:16:30;;;;;;;;;55.00;43.00;;;;;;;;5080889;27;51179;-48
2023/01/12 18:19:14;;;;;;;;;49.75;39.75;;;;;;;;5073155;27;51095;-48
2023/01/12 18:22:04;;;;;;;;;54.00;42.75;;;;;;;;5064513;27;51709;-52
2023/01/12 18:24:49;;;;;;;;;58.25;44.50;;;;;;;;5061687;28;51179;-47
2023/01/12 18:27:33;;;;;;;;;55.75;42.25;;;;;;;;5048005;28;51433;-53
2023/01/12 18:30:18;;;;;;;;;56.00;39.25;;;;;;;;5062552;28;51081;-54
2023/01/12 18:33:03;;;;;;;;;53.00;43.25;;;;;;;;5062508;28;51035;-54
2023/01/12 18:35:47;;;;;;;;;54.75;42.75;;;;;;;;5062503;28;50992;-54
2023/01/12 18:38:32;;;;;;;;;54.25;41.50;;;;;;;;5062973;28;51141;-49
2023/01/12 18:44:20;;;;;;;;;57.50;43.50;;;;;;;;5060441;28;51410;-49
2023/01/12 18:53:31;;;;;;;;;53.50;42.00;;;;;;;;5062176;28;51505;-48